sensor_id;sensor_type;location;lat;lon;timestamp;pressure;altitude;pressure_sealevel;temperature;humidity
51031;BME280;37058;41.442;23.240;2022-09-30T00:00:20;100082.31;;;16.83;93.79
51031;BME280;37058;41.442;23.240;2022-09-30T00:02:46;100084.78;;;16.84;94.19
51031;BME280;37058;41.442;23.240;2022-09-30T00:05:12;100093.88;;;16.85;93.79
51031;BME280;37058;41.442;23.240;2022-09-30T00:07:39;100095.91;;;16.79;93.87
51031;BME280;37058;41.442;23.240;2022-09-30T00:10:05;100090.13;;;16.76;93.38
51031;BME280;37058;41.442;23.240;2022-09-30T00:12:32;100094.25;;;16.78;93.36
51031;BME280;37058;41.442;23.240;2022-09-30T00:14:58;100098.97;;;16.78;92.43
51031;BME280;37058;41.442;23.240;2022-09-30T00:17:24;100108.94;;;16.74;92.75
51031;BME280;37058;41.442;23.240;2022-09-30T00:19:49;100104.00;;;16.71;92.12
51031;BME280;37058;41.442;23.240;2022-09-30T00:22:15;100114.59;;;16.63;90.34
51031;BME280;37058;41.442;23.240;2022-09-30T00:24:41;100110.91;;;16.54;90.07
51031;BME280;37058;41.442;23.240;2022-09-30T00:27:07;100119.25;;;16.49;90.49
51031;BME280;37058;41.442;23.240;2022-09-30T00:29:33;100131.38;;;16.48;91.28
51031;BME280;37058;41.442;23.240;2022-09-30T00:31:59;100126.78;;;16.43;92.02
51031;BME280;37058;41.442;23.240;2022-09-30T00:34:25;100132.06;;;16.40;91.97
51031;BME280;37058;41.442;23.240;2022-09-30T00:36:53;100139.00;;;16.18;90.96
51031;BME280;37058;41.442;23.240;2022-09-30T00:39:26;100138.75;;;16.15;91.57
51031;BME280;37058;41.442;23.240;2022-09-30T00:41:59;100142.38;;;15.91;91.74
51031;BME280;37058;41.442;23.240;2022-09-30T00:44:52;100142.16;;;15.88;92.33
51031;BME280;37058;41.442;23.240;2022-09-30T00:47:48;100147.59;;;15.93;92.64
51031;BME280;37058;41.442;23.240;2022-09-30T00:50:38;100138.16;;;15.99;92.85
51031;BME280;37058;41.442;23.240;2022-09-30T00:56:06;100154.00;;;16.07;93.12
51031;BME280;37058;41.442;23.240;2022-09-30T00:58:46;100155.13;;;16.06;92.49
51031;BME280;37058;41.442;23.240;2022-09-30T01:01:14;100147.63;;;16.12;92.25
51031;BME280;37058;41.442;23.240;2022-09-30T01:03:47;100151.94;;;16.18;92.05
51031;BME280;37058;41.442;23.240;2022-09-30T01:06:17;100143.66;;;16.18;92.51
51031;BME280;37058;41.442;23.240;2022-09-30T01:08:44;100143.91;;;16.21;92.83
51031;BME280;37058;41.442;23.240;2022-09-30T01:11:11;100146.41;;;16.18;92.46
51031;BME280;37058;41.442;23.240;2022-09-30T01:13:39;100145.16;;;16.10;92.97
51031;BME280;37058;41.442;23.240;2022-09-30T01:19:28;100161.31;;;15.98;93.78
51031;BME280;37058;41.442;23.240;2022-09-30T01:34:08;100164.06;;;15.74;92.61
51031;BME280;37058;41.442;23.240;2022-09-30T01:42:58;100151.72;;;15.66;94.07
51031;BME280;37058;41.442;23.240;2022-09-30T01:45:48;100164.44;;;15.62;94.54
51031;BME280;37058;41.442;23.240;2022-09-30T01:51:25;100154.88;;;15.54;94.21
51031;BME280;37058;41.442;23.240;2022-09-30T01:54:17;100160.63;;;15.58;93.55
51031;BME280;37058;41.442;23.240;2022-09-30T01:57:15;100163.06;;;15.59;93.67
51031;BME280;37058;41.442;23.240;2022-09-30T02:00:13;100178.78;;;15.59;93.88
51031;BME280;37058;41.442;23.240;2022-09-30T02:03:06;100182.72;;;15.53;93.71
51031;BME280;37058;41.442;23.240;2022-09-30T02:08:48;100174.66;;;15.32;89.90
51031;BME280;37058;41.442;23.240;2022-09-30T02:11:21;100173.31;;;15.30;89.62
51031;BME280;37058;41.442;23.240;2022-09-30T02:14:17;100179.91;;;15.29;90.07
51031;BME280;37058;41.442;23.240;2022-09-30T02:17:11;100195.59;;;15.28;91.91
51031;BME280;37058;41.442;23.240;2022-09-30T02:20:09;100181.91;;;15.23;91.69
51031;BME280;37058;41.442;23.240;2022-09-30T02:22:48;100185.78;;;15.22;91.87
51031;BME280;37058;41.442;23.240;2022-09-30T02:25:23;100176.97;;;15.20;93.35
51031;BME280;37058;41.442;23.240;2022-09-30T02:27:59;100175.03;;;15.21;93.80
51031;BME280;37058;41.442;23.240;2022-09-30T02:30:26;100194.06;;;15.17;94.17
51031;BME280;37058;41.442;23.240;2022-09-30T02:33:00;100186.38;;;15.14;94.86
51031;BME280;37058;41.442;23.240;2022-09-30T02:38:17;100197.09;;;15.15;96.45
51031;BME280;37058;41.442;23.240;2022-09-30T02:41:02;100208.41;;;15.09;97.45
51031;BME280;37058;41.442;23.240;2022-09-30T02:43:31;100216.72;;;15.04;95.21
51031;BME280;37058;41.442;23.240;2022-09-30T02:49:19;100226.13;;;14.98;95.68
51031;BME280;37058;41.442;23.240;2022-09-30T02:57:26;100219.47;;;15.04;95.97
51031;BME280;37058;41.442;23.240;2022-09-30T02:59:58;100218.69;;;14.98;94.06
51031;BME280;37058;41.442;23.240;2022-09-30T03:02:24;100224.53;;;14.91;92.58
51031;BME280;37058;41.442;23.240;2022-09-30T03:04:50;100214.13;;;14.83;92.32
51031;BME280;37058;41.442;23.240;2022-09-30T03:07:17;100217.47;;;14.75;91.87
51031;BME280;37058;41.442;23.240;2022-09-30T03:09:43;100217.81;;;14.63;91.22
51031;BME280;37058;41.442;23.240;2022-09-30T03:15:41;100224.47;;;14.57;90.26
51031;BME280;37058;41.442;23.240;2022-09-30T03:30:15;100248.59;;;14.65;93.23
51031;BME280;37058;41.442;23.240;2022-09-30T03:33:21;100237.59;;;14.65;93.67
51031;BME280;37058;41.442;23.240;2022-09-30T03:36:12;100240.66;;;14.64;94.57
51031;BME280;37058;41.442;23.240;2022-09-30T03:39:24;100234.63;;;14.62;94.31
51031;BME280;37058;41.442;23.240;2022-09-30T03:42:38;100246.69;;;14.61;95.49
51031;BME280;37058;41.442;23.240;2022-09-30T03:47:49;100255.78;;;14.61;93.85
51031;BME280;37058;41.442;23.240;2022-09-30T03:50:21;100254.41;;;14.64;93.00
51031;BME280;37058;41.442;23.240;2022-09-30T03:52:48;100257.66;;;14.66;92.59
51031;BME280;37058;41.442;23.240;2022-09-30T03:55:16;100263.69;;;14.68;93.11
51031;BME280;37058;41.442;23.240;2022-09-30T03:57:44;100262.63;;;14.69;95.62
51031;BME280;37058;41.442;23.240;2022-09-30T04:00:11;100262.03;;;14.72;95.50
51031;BME280;37058;41.442;23.240;2022-09-30T04:02:37;100259.88;;;14.69;95.08
51031;BME280;37058;41.442;23.240;2022-09-30T04:05:05;100270.06;;;14.58;92.49
51031;BME280;37058;41.442;23.240;2022-09-30T04:07:31;100280.53;;;14.51;90.75
51031;BME280;37058;41.442;23.240;2022-09-30T04:09:57;100293.19;;;14.47;89.36
51031;BME280;37058;41.442;23.240;2022-09-30T04:12:23;100287.47;;;14.38;88.70
51031;BME280;37058;41.442;23.240;2022-09-30T04:14:49;100293.50;;;14.35;88.38
51031;BME280;37058;41.442;23.240;2022-09-30T04:17:15;100292.13;;;14.32;89.07
51031;BME280;37058;41.442;23.240;2022-09-30T04:19:41;100291.91;;;14.24;89.22
51031;BME280;37058;41.442;23.240;2022-09-30T04:22:07;100293.56;;;14.20;90.40
51031;BME280;37058;41.442;23.240;2022-09-30T04:24:34;100299.34;;;14.18;90.76
51031;BME280;37058;41.442;23.240;2022-09-30T04:27:00;100301.00;;;14.14;91.02
51031;BME280;37058;41.442;23.240;2022-09-30T04:29:26;100307.88;;;14.06;91.90
51031;BME280;37058;41.442;23.240;2022-09-30T04:31:53;100314.50;;;14.05;92.66
51031;BME280;37058;41.442;23.240;2022-09-30T04:34:19;100320.50;;;14.07;92.67
51031;BME280;37058;41.442;23.240;2022-09-30T04:36:45;100318.88;;;14.06;92.90
51031;BME280;37058;41.442;23.240;2022-09-30T04:39:10;100322.97;;;14.09;93.18
51031;BME280;37058;41.442;23.240;2022-09-30T04:41:36;100323.63;;;14.66;90.88
51031;BME280;37058;41.442;23.240;2022-09-30T04:44:03;100324.94;;;15.23;87.01
51031;BME280;37058;41.442;23.240;2022-09-30T04:46:34;100319.91;;;15.70;84.68
51031;BME280;37058;41.442;23.240;2022-09-30T04:49:04;100317.28;;;16.85;78.66
51031;BME280;37058;41.442;23.240;2022-09-30T04:51:30;100317.00;;;17.24;76.32
51031;BME280;37058;41.442;23.240;2022-09-30T04:53:56;100313.59;;;18.39;72.36
51031;BME280;37058;41.442;23.240;2022-09-30T04:56:23;100305.09;;;19.59;67.03
51031;BME280;37058;41.442;23.240;2022-09-30T04:58:51;100307.63;;;20.31;64.58
51031;BME280;37058;41.442;23.240;2022-09-30T05:01:19;100314.16;;;19.96;64.40
51031;BME280;37058;41.442;23.240;2022-09-30T05:03:46;100308.75;;;20.30;64.11
51031;BME280;37058;41.442;23.240;2022-09-30T05:06:12;100311.53;;;21.75;59.48
51031;BME280;37058;41.442;23.240;2022-09-30T05:08:39;100319.22;;;23.23;54.70
51031;BME280;37058;41.442;23.240;2022-09-30T05:11:09;100321.19;;;24.34;51.64
51031;BME280;37058;41.442;23.240;2022-09-30T05:13:39;100320.69;;;25.18;48.87
51031;BME280;37058;41.442;23.240;2022-09-30T05:16:07;100317.72;;;25.83;47.05
51031;BME280;37058;41.442;23.240;2022-09-30T05:18:34;100328.84;;;24.99;48.17
51031;BME280;37058;41.442;23.240;2022-09-30T05:21:00;100326.59;;;21.74;56.79
51031;BME280;37058;41.442;23.240;2022-09-30T05:23:29;100335.47;;;20.58;62.43
51031;BME280;37058;41.442;23.240;2022-09-30T05:25:56;100325.53;;;20.25;64.38
51031;BME280;37058;41.442;23.240;2022-09-30T05:28:23;100317.06;;;19.90;65.47
51031;BME280;37058;41.442;23.240;2022-09-30T05:30:58;100321.28;;;19.65;66.96
51031;BME280;37058;41.442;23.240;2022-09-30T05:33:25;100333.00;;;19.62;67.70
51031;BME280;37058;41.442;23.240;2022-09-30T05:35:51;100335.53;;;19.50;68.74
51031;BME280;37058;41.442;23.240;2022-09-30T05:38:17;100343.66;;;18.96;71.65
51031;BME280;37058;41.442;23.240;2022-09-30T05:40:43;100348.59;;;18.99;72.50
51031;BME280;37058;41.442;23.240;2022-09-30T05:43:09;100351.78;;;19.07;72.87
51031;BME280;37058;41.442;23.240;2022-09-30T05:45:35;100358.78;;;19.26;72.58
51031;BME280;37058;41.442;23.240;2022-09-30T05:48:03;100365.09;;;19.41;72.23
51031;BME280;37058;41.442;23.240;2022-09-30T05:50:29;100366.16;;;19.54;72.32
51031;BME280;37058;41.442;23.240;2022-09-30T05:52:56;100364.47;;;19.44;72.91
51031;BME280;37058;41.442;23.240;2022-09-30T05:55:22;100368.63;;;19.55;72.99
51031;BME280;37058;41.442;23.240;2022-09-30T05:57:51;100368.53;;;19.83;72.71
51031;BME280;37058;41.442;23.240;2022-09-30T06:00:18;100363.31;;;20.12;71.23
51031;BME280;37058;41.442;23.240;2022-09-30T06:02:44;100372.25;;;20.41;70.76
51031;BME280;37058;41.442;23.240;2022-09-30T06:05:11;100378.09;;;20.62;69.78
51031;BME280;37058;41.442;23.240;2022-09-30T06:07:38;100376.09;;;20.53;69.46
51031;BME280;37058;41.442;23.240;2022-09-30T06:10:06;100374.03;;;20.68;70.04
51031;BME280;37058;41.442;23.240;2022-09-30T06:12:37;100377.22;;;20.92;69.74
51031;BME280;37058;41.442;23.240;2022-09-30T06:15:04;100375.75;;;21.04;69.08
51031;BME280;37058;41.442;23.240;2022-09-30T06:17:30;100369.63;;;21.41;68.10
51031;BME280;37058;41.442;23.240;2022-09-30T06:19:56;100382.03;;;21.70;67.20
51031;BME280;37058;41.442;23.240;2022-09-30T06:22:22;100380.34;;;22.04;66.48
51031;BME280;37058;41.442;23.240;2022-09-30T06:24:47;100380.59;;;22.37;64.89
51031;BME280;37058;41.442;23.240;2022-09-30T06:27:13;100378.22;;;22.86;63.16
51031;BME280;37058;41.442;23.240;2022-09-30T06:29:39;100376.94;;;23.13;61.95
51031;BME280;37058;41.442;23.240;2022-09-30T06:32:05;100392.44;;;23.44;60.82
51031;BME280;37058;41.442;23.240;2022-09-30T06:34:32;100387.91;;;23.40;59.93
51031;BME280;37058;41.442;23.240;2022-09-30T06:36:58;100401.84;;;23.61;59.73
51031;BME280;37058;41.442;23.240;2022-09-30T06:39:24;100424.41;;;24.22;57.73
51031;BME280;37058;41.442;23.240;2022-09-30T06:41:53;100428.59;;;24.86;55.96
51031;BME280;37058;41.442;23.240;2022-09-30T06:44:20;100429.63;;;25.43;53.61
51031;BME280;37058;41.442;23.240;2022-09-30T06:46:46;100429.50;;;25.92;52.15
51031;BME280;37058;41.442;23.240;2022-09-30T06:49:12;100435.44;;;26.94;49.57
51031;BME280;37058;41.442;23.240;2022-09-30T06:51:38;100432.91;;;29.94;42.46
51031;BME280;37058;41.442;23.240;2022-09-30T06:54:04;100435.50;;;32.81;36.24
51031;BME280;37058;41.442;23.240;2022-09-30T06:56:30;100427.00;;;34.34;33.11
51031;BME280;37058;41.442;23.240;2022-09-30T06:58:56;100429.81;;;36.30;30.00
51031;BME280;37058;41.442;23.240;2022-09-30T07:01:22;100427.94;;;38.21;27.78
51031;BME280;37058;41.442;23.240;2022-09-30T07:03:49;100433.97;;;38.59;26.50
51031;BME280;37058;41.442;23.240;2022-09-30T07:06:23;100439.91;;;39.73;25.21
51031;BME280;37058;41.442;23.240;2022-09-30T07:08:50;100445.44;;;41.08;24.44
51031;BME280;37058;41.442;23.240;2022-09-30T07:11:16;100446.09;;;37.71;27.60
51031;BME280;37058;41.442;23.240;2022-09-30T07:13:43;100442.53;;;34.07;33.23
51031;BME280;37058;41.442;23.240;2022-09-30T07:16:14;100442.00;;;31.47;37.86
51031;BME280;37058;41.442;23.240;2022-09-30T07:18:41;100429.47;;;29.74;42.12
51031;BME280;37058;41.442;23.240;2022-09-30T07:21:08;100424.16;;;28.89;44.09
51031;BME280;37058;41.442;23.240;2022-09-30T07:23:34;100428.91;;;27.96;45.93
51031;BME280;37058;41.442;23.240;2022-09-30T07:26:02;100444.13;;;27.40;48.03
51031;BME280;37058;41.442;23.240;2022-09-30T07:28:33;100437.13;;;26.99;48.66
51031;BME280;37058;41.442;23.240;2022-09-30T07:31:05;100437.94;;;26.68;49.87
51031;BME280;37058;41.442;23.240;2022-09-30T07:33:32;100436.13;;;26.44;50.07
51031;BME280;37058;41.442;23.240;2022-09-30T07:36:00;100437.06;;;26.20;51.21
51031;BME280;37058;41.442;23.240;2022-09-30T07:38:29;100434.28;;;25.79;51.06
51031;BME280;37058;41.442;23.240;2022-09-30T07:41:06;100436.19;;;25.22;52.82
51031;BME280;37058;41.442;23.240;2022-09-30T07:43:34;100437.81;;;25.23;53.32
51031;BME280;37058;41.442;23.240;2022-09-30T07:46:18;100443.38;;;25.11;53.72
51031;BME280;37058;41.442;23.240;2022-09-30T07:48:50;100444.41;;;25.06;53.70
51031;BME280;37058;41.442;23.240;2022-09-30T07:51:33;100452.34;;;24.80;54.36
51031;BME280;37058;41.442;23.240;2022-09-30T07:54:13;100451.06;;;24.90;54.23
51031;BME280;37058;41.442;23.240;2022-09-30T07:56:39;100460.38;;;24.94;54.18
51031;BME280;37058;41.442;23.240;2022-09-30T07:59:06;100454.09;;;24.84;53.44
51031;BME280;37058;41.442;23.240;2022-09-30T08:01:32;100450.72;;;24.79;53.66
51031;BME280;37058;41.442;23.240;2022-09-30T08:04:04;100446.16;;;24.62;54.96
51031;BME280;37058;41.442;23.240;2022-09-30T08:06:35;100452.63;;;24.41;56.10
51031;BME280;37058;41.442;23.240;2022-09-30T08:09:01;100442.16;;;24.38;56.54
51031;BME280;37058;41.442;23.240;2022-09-30T08:11:27;100456.03;;;24.47;56.56
51031;BME280;37058;41.442;23.240;2022-09-30T08:13:55;100458.66;;;24.43;56.62
51031;BME280;37058;41.442;23.240;2022-09-30T08:16:23;100456.97;;;24.30;57.48
51031;BME280;37058;41.442;23.240;2022-09-30T08:19:00;100470.19;;;24.09;57.58
51031;BME280;37058;41.442;23.240;2022-09-30T08:21:27;100467.34;;;23.96;58.44
51031;BME280;37058;41.442;23.240;2022-09-30T08:23:54;100456.88;;;23.93;58.21
51031;BME280;37058;41.442;23.240;2022-09-30T08:26:20;100464.16;;;23.86;57.16
51031;BME280;37058;41.442;23.240;2022-09-30T08:28:46;100464.44;;;23.93;58.07
51031;BME280;37058;41.442;23.240;2022-09-30T08:31:21;100458.97;;;23.96;58.37
51031;BME280;37058;41.442;23.240;2022-09-30T08:33:48;100462.44;;;23.93;58.02
51031;BME280;37058;41.442;23.240;2022-09-30T08:36:17;100455.47;;;23.99;57.68
51031;BME280;37058;41.442;23.240;2022-09-30T08:38:44;100460.59;;;23.97;57.33
51031;BME280;37058;41.442;23.240;2022-09-30T08:46:47;100453.78;;;24.07;57.41
51031;BME280;37058;41.442;23.240;2022-09-30T08:52:26;100454.16;;;24.18;55.38
51031;BME280;37058;41.442;23.240;2022-09-30T08:54:54;100446.50;;;24.27;55.75
51031;BME280;37058;41.442;23.240;2022-09-30T08:57:22;100456.50;;;24.28;54.86
51031;BME280;37058;41.442;23.240;2022-09-30T08:59:54;100451.53;;;24.34;54.60
51031;BME280;37058;41.442;23.240;2022-09-30T09:02:26;100445.97;;;24.34;54.40
51031;BME280;37058;41.442;23.240;2022-09-30T09:04:57;100459.81;;;24.42;52.83
51031;BME280;37058;41.442;23.240;2022-09-30T09:10:41;100451.50;;;24.55;50.67
51031;BME280;37058;41.442;23.240;2022-09-30T09:13:12;100456.28;;;24.67;51.89
51031;BME280;37058;41.442;23.240;2022-09-30T09:18:41;100461.06;;;24.78;51.57
51031;BME280;37058;41.442;23.240;2022-09-30T09:21:50;100468.41;;;24.83;51.44
51031;BME280;37058;41.442;23.240;2022-09-30T09:24:25;100464.47;;;24.84;51.40
51031;BME280;37058;41.442;23.240;2022-09-30T09:26:54;100459.22;;;24.95;51.46
51031;BME280;37058;41.442;23.240;2022-09-30T09:29:56;100455.97;;;25.05;51.32
51031;BME280;37058;41.442;23.240;2022-09-30T09:32:25;100446.19;;;25.23;50.90
51031;BME280;37058;41.442;23.240;2022-09-30T09:35:00;100443.06;;;25.25;50.76
51031;BME280;37058;41.442;23.240;2022-09-30T09:47:10;100432.91;;;25.45;52.35
51031;BME280;37058;41.442;23.240;2022-09-30T09:52:18;100429.69;;;25.59;53.52
51031;BME280;37058;41.442;23.240;2022-09-30T09:54:54;100430.38;;;25.68;52.92
51031;BME280;37058;41.442;23.240;2022-09-30T09:57:26;100436.63;;;25.77;52.63
51031;BME280;37058;41.442;23.240;2022-09-30T10:00:09;100438.38;;;25.82;52.97
51031;BME280;37058;41.442;23.240;2022-09-30T10:03:00;100442.13;;;25.86;53.43
51031;BME280;37058;41.442;23.240;2022-09-30T10:05:27;100437.63;;;25.97;54.14
51031;BME280;37058;41.442;23.240;2022-09-30T10:10:49;100439.09;;;26.07;52.75
51031;BME280;37058;41.442;23.240;2022-09-30T10:15:59;100434.19;;;26.16;53.12
51031;BME280;37058;41.442;23.240;2022-09-30T10:18:32;100435.91;;;26.21;52.73
51031;BME280;37058;41.442;23.240;2022-09-30T10:21:21;100435.47;;;26.34;52.69
51031;BME280;37058;41.442;23.240;2022-09-30T10:23:47;100416.06;;;26.42;52.54
51031;BME280;37058;41.442;23.240;2022-09-30T10:29:00;100424.75;;;26.52;51.97
51031;BME280;37058;41.442;23.240;2022-09-30T10:31:32;100414.38;;;26.53;51.92
51031;BME280;37058;41.442;23.240;2022-09-30T10:34:27;100413.47;;;26.65;53.46
51031;BME280;37058;41.442;23.240;2022-09-30T10:36:56;100420.41;;;26.71;53.01
51031;BME280;37058;41.442;23.240;2022-09-30T10:40:01;100416.19;;;26.77;51.47
51031;BME280;37058;41.442;23.240;2022-09-30T10:42:32;100424.03;;;26.87;50.35
51031;BME280;37058;41.442;23.240;2022-09-30T10:45:07;100423.22;;;26.87;48.79
51031;BME280;37058;41.442;23.240;2022-09-30T10:47:48;100418.97;;;26.93;48.43
51031;BME280;37058;41.442;23.240;2022-09-30T10:50:20;100407.47;;;26.98;49.32
51031;BME280;37058;41.442;23.240;2022-09-30T10:53:00;100418.06;;;27.05;48.14
51031;BME280;37058;41.442;23.240;2022-09-30T10:55:44;100405.72;;;27.09;48.96
51031;BME280;37058;41.442;23.240;2022-09-30T10:58:50;100405.44;;;27.14;47.24
51031;BME280;37058;41.442;23.240;2022-09-30T11:06:44;100398.59;;;27.28;45.06
51031;BME280;37058;41.442;23.240;2022-09-30T11:09:33;100400.66;;;27.31;44.58
51031;BME280;37058;41.442;23.240;2022-09-30T11:12:16;100407.56;;;27.37;44.57
51031;BME280;37058;41.442;23.240;2022-09-30T11:15:08;100404.88;;;27.40;44.25
51031;BME280;37058;41.442;23.240;2022-09-30T11:17:47;100407.84;;;27.48;44.02
51031;BME280;37058;41.442;23.240;2022-09-30T11:20:42;100403.25;;;27.59;44.85
51031;BME280;37058;41.442;23.240;2022-09-30T11:23:36;100407.81;;;27.67;43.69
51031;BME280;37058;41.442;23.240;2022-09-30T11:26:32;100411.47;;;27.67;43.68
51031;BME280;37058;41.442;23.240;2022-09-30T11:44:24;100409.25;;;27.96;41.02
51031;BME280;37058;41.442;23.240;2022-09-30T11:55:50;100406.13;;;28.21;40.87
51031;BME280;37058;41.442;23.240;2022-09-30T11:58:22;100407.75;;;28.22;40.50
51031;BME280;37058;41.442;23.240;2022-09-30T12:01:05;100396.16;;;28.23;40.30
51031;BME280;37058;41.442;23.240;2022-09-30T12:03:42;100404.63;;;28.27;39.33
51031;BME280;37058;41.442;23.240;2022-09-30T12:06:35;100395.09;;;28.31;39.00
51031;BME280;37058;41.442;23.240;2022-09-30T12:09:25;100408.22;;;28.47;37.12
51031;BME280;37058;41.442;23.240;2022-09-30T12:14:45;100407.41;;;28.46;36.99
51031;BME280;37058;41.442;23.240;2022-09-30T12:17:30;100405.94;;;28.56;36.15
51031;BME280;37058;41.442;23.240;2022-09-30T12:22:44;100397.78;;;28.47;35.28
51031;BME280;37058;41.442;23.240;2022-09-30T12:25:23;100400.22;;;28.49;36.32
51031;BME280;37058;41.442;23.240;2022-09-30T12:43:22;100397.72;;;28.44;38.30
51031;BME280;37058;41.442;23.240;2022-09-30T12:49:04;100380.94;;;28.47;37.40
51031;BME280;37058;41.442;23.240;2022-09-30T12:51:34;100381.81;;;28.51;37.58
51031;BME280;37058;41.442;23.240;2022-09-30T12:54:19;100388.38;;;28.59;38.24
51031;BME280;37058;41.442;23.240;2022-09-30T12:56:57;100381.91;;;28.59;38.39
51031;BME280;37058;41.442;23.240;2022-09-30T13:00:24;100380.31;;;28.58;37.91
51031;BME280;37058;41.442;23.240;2022-09-30T13:02:58;100389.50;;;28.55;38.40
51031;BME280;37058;41.442;23.240;2022-09-30T13:08:22;100391.06;;;28.52;38.61
51031;BME280;37058;41.442;23.240;2022-09-30T13:10:59;100389.09;;;28.56;38.74
51031;BME280;37058;41.442;23.240;2022-09-30T13:13:31;100394.78;;;28.60;39.42
51031;BME280;37058;41.442;23.240;2022-09-30T13:16:00;100394.78;;;28.60;40.15
51031;BME280;37058;41.442;23.240;2022-09-30T13:31:30;100407.59;;;28.57;37.14
51031;BME280;37058;41.442;23.240;2022-09-30T13:36:56;100416.81;;;28.58;37.47
51031;BME280;37058;41.442;23.240;2022-09-30T13:45:01;100426.06;;;28.58;36.42
51031;BME280;37058;41.442;23.240;2022-09-30T13:50:31;100427.25;;;28.57;35.99
51031;BME280;37058;41.442;23.240;2022-09-30T13:53:06;100430.81;;;28.54;36.62
51031;BME280;37058;41.442;23.240;2022-09-30T13:55:44;100428.94;;;28.62;37.44
51031;BME280;37058;41.442;23.240;2022-09-30T14:11:22;100397.03;;;28.50;37.66
51031;BME280;37058;41.442;23.240;2022-09-30T14:14:10;100393.72;;;28.45;38.24
51031;BME280;37058;41.442;23.240;2022-09-30T14:22:35;100393.88;;;28.52;37.65
51031;BME280;37058;41.442;23.240;2022-09-30T14:25:03;100393.88;;;28.52;40.02
51031;BME280;37058;41.442;23.240;2022-09-30T14:28:08;100397.03;;;28.50;37.72
51031;BME280;37058;41.442;23.240;2022-09-30T14:30:40;100396.53;;;28.45;37.54
51031;BME280;37058;41.442;23.240;2022-09-30T14:33:23;100396.88;;;28.43;37.04
51031;BME280;37058;41.442;23.240;2022-09-30T14:35:52;100400.00;;;28.38;37.44
51031;BME280;37058;41.442;23.240;2022-09-30T14:38:23;100399.19;;;28.38;37.72
51031;BME280;37058;41.442;23.240;2022-09-30T14:40:57;100401.13;;;28.34;37.97
51031;BME280;37058;41.442;23.240;2022-09-30T14:43:30;100403.13;;;28.33;37.45
51031;BME280;37058;41.442;23.240;2022-09-30T14:46:05;100406.44;;;28.39;37.30
51031;BME280;37058;41.442;23.240;2022-09-30T14:48:35;100408.81;;;28.37;39.19
51031;BME280;37058;41.442;23.240;2022-09-30T14:51:11;100417.25;;;28.37;40.49
51031;BME280;37058;41.442;23.240;2022-09-30T14:53:59;100417.09;;;28.29;41.70
51031;BME280;37058;41.442;23.240;2022-09-30T14:56:31;100423.84;;;28.25;40.61
51031;BME280;37058;41.442;23.240;2022-09-30T14:58:59;100419.31;;;28.20;39.40
51031;BME280;37058;41.442;23.240;2022-09-30T15:01:32;100428.50;;;28.17;39.23
51031;BME280;37058;41.442;23.240;2022-09-30T15:04:06;100437.69;;;28.14;39.34
51031;BME280;37058;41.442;23.240;2022-09-30T15:06:36;100436.88;;;28.14;41.28
51031;BME280;37058;41.442;23.240;2022-09-30T15:09:14;100439.59;;;28.10;43.07
51031;BME280;37058;41.442;23.240;2022-09-30T15:11:41;100434.72;;;28.07;43.83
51031;BME280;37058;41.442;23.240;2022-09-30T15:14:17;100441.44;;;28.02;44.08
51031;BME280;37058;41.442;23.240;2022-09-30T15:16:55;100440.94;;;27.97;44.29
51031;BME280;37058;41.442;23.240;2022-09-30T15:19:27;100445.66;;;27.93;44.79
51031;BME280;37058;41.442;23.240;2022-09-30T15:21:57;100441.19;;;27.88;46.09
51031;BME280;37058;41.442;23.240;2022-09-30T15:24:28;100450.25;;;27.81;46.92
51031;BME280;37058;41.442;23.240;2022-09-30T15:26:59;100447.72;;;27.76;47.97
51031;BME280;37058;41.442;23.240;2022-09-30T15:29:25;100445.56;;;27.70;48.07
51031;BME280;37058;41.442;23.240;2022-09-30T15:32:13;100440.63;;;27.63;49.44
51031;BME280;37058;41.442;23.240;2022-09-30T15:34:40;100442.06;;;27.57;51.81
51031;BME280;37058;41.442;23.240;2022-09-30T15:37:22;100438.31;;;27.49;52.99
51031;BME280;37058;41.442;23.240;2022-09-30T15:39:49;100451.81;;;27.43;52.58
51031;BME280;37058;41.442;23.240;2022-09-30T15:43:06;100457.19;;;27.33;52.77
51031;BME280;37058;41.442;23.240;2022-09-30T15:45:39;100471.31;;;27.20;55.40
51031;BME280;37058;41.442;23.240;2022-09-30T15:50:58;100484.22;;;26.93;56.09
51031;BME280;37058;41.442;23.240;2022-09-30T15:55:58;100487.28;;;26.72;56.53
51031;BME280;37058;41.442;23.240;2022-09-30T15:58:38;100489.38;;;26.59;56.76
51031;BME280;37058;41.442;23.240;2022-09-30T16:01:18;100503.06;;;26.49;57.10
51031;BME280;37058;41.442;23.240;2022-09-30T16:04:13;100492.63;;;26.33;57.71
51031;BME280;37058;41.442;23.240;2022-09-30T16:06:59;100506.31;;;26.23;57.26
51031;BME280;37058;41.442;23.240;2022-09-30T16:09:38;100498.34;;;26.09;56.24
51031;BME280;37058;41.442;23.240;2022-09-30T16:12:15;100502.78;;;25.98;55.83
51031;BME280;37058;41.442;23.240;2022-09-30T16:17:36;100510.63;;;25.80;55.00
51031;BME280;37058;41.442;23.240;2022-09-30T16:20:22;100513.44;;;25.67;55.26
51031;BME280;37058;41.442;23.240;2022-09-30T16:22:54;100513.59;;;25.59;55.25
51031;BME280;37058;41.442;23.240;2022-09-30T16:25:28;100524.06;;;25.49;55.16
51031;BME280;37058;41.442;23.240;2022-09-30T16:30:44;100519.00;;;25.27;56.86
51031;BME280;37058;41.442;23.240;2022-09-30T16:33:13;100520.72;;;25.19;57.31
51031;BME280;37058;41.442;23.240;2022-09-30T16:35:42;100523.94;;;25.09;57.96
51031;BME280;37058;41.442;23.240;2022-09-30T16:38:12;100524.06;;;25.00;57.96